Time;durP1;ratioP1;P1;durP2;ratioP2;P2;SDS_P1;SDS_P2;PMS_P1;PMS_P2;Temp;Humidity;BMP_temperature;BMP_pressure;BME280_temperature;BME280_humidity;BME280_pressure;Samples;Min_cycle;Max_cycle;Signal;HPM_P1;HPM_P2
2023/12/14 00:01:16;;;;;;;4.83;2.40;;;;;;;7.70;100.00;95158.25;4997926;28;20214;-68
2023/12/14 00:03:44;;;;;;;5.53;2.10;;;;;;;7.79;100.00;95165.00;4998794;28;20353;-69
2023/12/14 00:06:11;;;;;;;2.50;1.23;;;;;;;7.49;100.00;95162.66;4997714;28;20273;-68
2023/12/14 00:08:38;;;;;;;4.23;1.80;;;;;;;7.43;100.00;95169.44;4998296;28;20293;-69
2023/12/14 00:11:05;;;;;;;0.70;0.70;;;;;;;7.48;100.00;95177.53;5004803;28;20234;-68
2023/12/14 00:13:32;;;;;;;1.00;0.90;;;;;;;7.29;100.00;95180.75;4997951;28;20213;-68
2023/12/14 00:15:59;;;;;;;0.60;0.60;;;;;;;7.36;100.00;95184.25;4997793;28;20199;-69
2023/12/14 00:18:25;;;;;;;1.00;0.70;;;;;;;7.37;100.00;95183.28;4998327;28;20226;-68
2023/12/14 00:20:53;;;;;;;0.60;0.60;;;;;;;7.46;100.00;95189.25;4997863;28;20227;-68
2023/12/14 00:23:20;;;;;;;0.73;0.60;;;;;;;7.34;100.00;95204.63;4997789;28;20222;-69
2023/12/14 00:25:47;;;;;;;0.77;0.60;;;;;;;7.25;100.00;95206.69;4997459;28;20214;-69
2023/12/14 00:28:13;;;;;;;0.70;0.70;;;;;;;7.26;100.00;95213.56;4997877;28;20203;-68
2023/12/14 00:30:40;;;;;;;0.70;0.70;;;;;;;7.32;100.00;95214.44;5005162;28;20257;-69
2023/12/14 00:33:06;;;;;;;0.50;0.50;;;;;;;7.01;100.00;95214.81;4997982;28;20195;-68
2023/12/14 00:35:33;;;;;;;0.60;0.60;;;;;;;7.15;100.00;95225.28;4997371;28;20569;-69
2023/12/14 00:38:01;;;;;;;0.60;0.60;;;;;;;7.29;100.00;95222.69;4998569;28;20220;-68
2023/12/14 00:40:27;;;;;;;1.73;0.80;;;;;;;7.21;100.00;95221.16;4996094;28;20693;-68
2023/12/14 00:42:54;;;;;;;0.47;0.47;;;;;;;7.04;100.00;95220.50;4997550;28;20230;-69
2023/12/14 00:45:20;;;;;;;0.60;0.60;;;;;;;6.97;100.00;95224.03;4997110;28;20202;-69
2023/12/14 00:47:47;;;;;;;0.60;0.60;;;;;;;7.20;100.00;95224.75;4998185;28;20202;-68
2023/12/14 00:50:13;;;;;;;1.37;0.70;;;;;;;7.26;100.00;95229.28;4996862;28;20303;-68
2023/12/14 00:52:40;;;;;;;3.80;0.60;;;;;;;7.18;100.00;95231.97;4997922;28;20202;-68
2023/12/14 00:55:08;;;;;;;0.73;0.70;;;;;;;7.19;100.00;95237.03;4997845;28;20198;-68
2023/12/14 00:57:35;;;;;;;0.60;0.60;;;;;;;7.25;100.00;95238.13;4996546;28;20198;-68
2023/12/14 01:00:01;;;;;;;0.50;0.50;;;;;;;7.21;100.00;95242.91;4997473;28;20202;-69
2023/12/14 01:02:28;;;;;;;0.60;0.60;;;;;;;7.33;100.00;95244.06;4998030;28;20658;-68
2023/12/14 01:04:54;;;;;;;0.50;0.50;;;;;;;7.18;100.00;95248.53;5004833;28;20198;-68
2023/12/14 01:07:21;;;;;;;0.50;0.50;;;;;;;7.20;100.00;95250.97;4997137;28;20592;-68
2023/12/14 01:09:47;;;;;;;0.70;0.60;;;;;;;7.15;100.00;95258.53;5005029;28;20202;-68
2023/12/14 01:12:15;;;;;;;0.40;0.40;;;;;;;7.21;100.00;95257.81;4997458;28;20234;-69
2023/12/14 01:14:42;;;;;;;0.60;0.60;;;;;;;7.32;100.00;95258.19;4997280;28;20350;-68
2023/12/14 01:17:08;;;;;;;0.50;0.50;;;;;;;7.36;100.00;95272.56;4997693;28;20211;-68
2023/12/14 01:19:35;;;;;;;0.60;0.60;;;;;;;7.19;100.00;95272.91;4997338;28;20202;-68
2023/12/14 01:22:01;;;;;;;0.87;0.50;;;;;;;7.03;100.00;95280.94;4997774;28;20221;-68
2023/12/14 01:24:28;;;;;;;1.00;0.87;;;;;;;7.04;100.00;95282.53;4996888;28;20222;-68
2023/12/14 01:26:54;;;;;;;2.63;0.70;;;;;;;7.27;100.00;95282.31;4997682;28;20244;-69
2023/12/14 01:29:22;;;;;;;0.60;0.60;;;;;;;7.44;100.00;95286.38;4996882;28;20203;-68
2023/12/14 01:31:48;;;;;;;0.60;0.60;;;;;;;7.26;100.00;95291.16;4997359;28;20222;-69
2023/12/14 01:34:15;;;;;;;0.50;0.50;;;;;;;7.33;100.00;95297.31;4997106;28;20201;-69
2023/12/14 01:36:42;;;;;;;0.70;0.70;;;;;;;7.42;100.00;95298.00;4997584;28;20214;-69
2023/12/14 01:39:09;;;;;;;0.70;0.60;;;;;;;7.23;100.00;95305.59;5003958;28;20557;-68
2023/12/14 01:41:35;;;;;;;1.37;1.00;;;;;;;7.18;100.00;95310.56;4997263;28;20223;-69
2023/12/14 01:44:02;;;;;;;3.20;1.27;;;;;;;7.19;100.00;95312.19;4997160;28;20234;-69
2023/12/14 01:46:29;;;;;;;2.03;1.10;;;;;;;7.22;100.00;95317.06;4996649;28;20209;-69
2023/12/14 01:48:56;;;;;;;2.33;1.30;;;;;;;7.27;100.00;95315.56;4996986;28;20214;-68
2023/12/14 01:51:23;;;;;;;3.17;2.13;;;;;;;7.25;100.00;95324.59;4998668;28;20226;-69
2023/12/14 01:53:49;;;;;;;5.03;2.57;;;;;;;7.28;100.00;95325.84;5000382;28;20195;-68
2023/12/14 01:56:16;;;;;;;3.73;2.07;;;;;;;7.17;100.00;95322.06;5000683;28;20202;-69
2023/12/14 01:58:42;;;;;;;3.03;1.97;;;;;;;7.33;100.00;95326.13;5001144;28;20202;-68
2023/12/14 02:01:15;;;;;;;1.97;1.60;;;;;;;7.40;100.00;95336.72;4999863;28;20222;-69
2023/12/14 02:03:46;;;;;;;2.57;1.57;;;;;;;7.61;100.00;95340.25;5000645;28;20341;-69
2023/12/14 02:06:13;;;;;;;1.77;1.00;;;;;;;7.51;100.00;95342.31;5000663;28;20198;-68
2023/12/14 02:08:39;;;;;;;1.10;1.07;;;;;;;7.37;100.00;95344.94;5000042;28;20202;-69
2023/12/14 02:11:06;;;;;;;1.90;1.07;;;;;;;7.46;100.00;95349.91;5002516;28;21216;-69
2023/12/14 02:13:33;;;;;;;1.33;1.00;;;;;;;7.29;100.00;95348.44;5005024;28;20350;-69
2023/12/14 02:16:00;;;;;;;1.00;0.90;;;;;;;7.40;100.00;95353.25;5000211;28;20209;-68
2023/12/14 02:18:26;;;;;;;1.17;0.80;;;;;;;7.37;100.00;95355.44;4999455;28;20421;-68
2023/12/14 02:20:54;;;;;;;0.97;0.80;;;;;;;7.26;100.00;95358.47;5000278;28;20234;-68
2023/12/14 02:23:22;;;;;;;0.70;0.63;;;;;;;7.43;100.00;95357.31;5000689;28;20632;-69
2023/12/14 02:25:49;;;;;;;1.10;0.90;;;;;;;7.38;100.00;95360.47;5006644;28;20214;-69
2023/12/14 02:28:15;;;;;;;0.87;0.80;;;;;;;7.47;100.00;95364.66;5000302;28;20203;-69
2023/12/14 02:30:42;;;;;;;1.50;1.03;;;;;;;7.51;100.00;95371.16;5000005;28;20716;-69
2023/12/14 02:33:09;;;;;;;0.60;0.60;;;;;;;7.59;100.00;95368.44;5000071;28;20198;-69
2023/12/14 02:35:35;;;;;;;1.23;0.80;;;;;;;7.58;100.00;95379.91;4999270;28;20213;-69
2023/12/14 02:38:02;;;;;;;0.70;0.70;;;;;;;7.56;100.00;95373.22;5000259;28;20221;-69
2023/12/14 02:40:30;;;;;;;0.83;0.70;;;;;;;7.44;100.00;95379.91;5003967;28;20225;-69
2023/12/14 02:42:56;;;;;;;1.23;0.60;;;;;;;7.48;100.00;95376.75;4999619;28;20592;-68
2023/12/14 02:45:23;;;;;;;0.73;0.73;;;;;;;7.34;100.00;95380.19;5004966;28;20202;-69
2023/12/14 02:47:49;;;;;;;0.60;0.60;;;;;;;7.56;100.00;95388.94;5001950;28;20700;-69
2023/12/14 02:50:16;;;;;;;0.90;0.70;;;;;;;7.58;100.00;95390.41;4999295;28;20230;-69
2023/12/14 02:52:42;;;;;;;0.80;0.80;;;;;;;7.58;100.00;95390.41;4999652;28;20209;-69
2023/12/14 02:55:09;;;;;;;0.60;0.60;;;;;;;7.60;100.00;95391.06;4999738;28;20198;-68
2023/12/14 02:57:37;;;;;;;1.07;0.60;;;;;;;7.69;100.00;95395.22;4999289;28;20206;-68
2023/12/14 03:00:05;;;;;;;1.43;0.83;;;;;;;7.71;100.00;95403.69;4999039;28;20201;-68
2023/12/14 03:02:31;;;;;;;1.10;1.00;;;;;;;7.74;100.00;95405.16;5001653;28;20209;-69
2023/12/14 03:04:58;;;;;;;1.67;0.80;;;;;;;7.70;100.00;95406.50;4999744;28;20226;-69
2023/12/14 03:07:24;;;;;;;0.87;0.70;;;;;;;7.59;100.00;95407.78;4999228;28;20222;-68
2023/12/14 03:09:51;;;;;;;0.80;0.70;;;;;;;7.52;100.00;95409.50;4998654;28;20206;-69
2023/12/14 03:12:17;;;;;;;0.97;0.87;;;;;;;7.59;100.00;95414.84;4999487;28;20230;-69
2023/12/14 03:14:45;;;;;;;1.53;0.80;;;;;;;7.79;100.00;95419.38;4998683;28;20207;-69
2023/12/14 03:17:12;;;;;;;0.80;0.80;;;;;;;7.61;100.00;95416.28;4998844;28;20199;-69
2023/12/14 03:19:41;;;;;;;7.60;0.83;;;;;;;7.64;100.00;95418.53;4998885;28;20205;-69
2023/12/14 03:22:07;;;;;;;1.10;1.00;;;;;;;7.43;100.00;95431.53;4999732;28;20226;-69
2023/12/14 03:24:34;;;;;;;0.83;0.83;;;;;;;7.45;100.00;95419.03;4998438;28;20911;-69
2023/12/14 03:27:01;;;;;;;2.03;1.00;;;;;;;7.49;100.00;95430.00;4999179;28;20203;-69
2023/12/14 03:29:27;;;;;;;0.70;0.70;;;;;;;7.43;100.00;95431.53;5003774;28;20199;-69
2023/12/14 03:31:55;;;;;;;2.13;1.10;;;;;;;7.51;100.00;95434.06;4998572;28;20234;-69
2023/12/14 03:34:22;;;;;;;1.53;0.97;;;;;;;7.32;100.00;95444.22;4998248;28;20684;-68
2023/12/14 03:36:48;;;;;;;5.50;0.87;;;;;;;7.28;100.00;95442.97;4998423;28;20202;-68
2023/12/14 03:39:16;;;;;;;1.30;1.03;;;;;;;7.47;100.00;95438.03;4998265;28;20198;-68
2023/12/14 03:41:42;;;;;;;1.17;0.87;;;;;;;7.48;100.00;95444.09;4998585;28;20720;-69
2023/12/14 03:44:09;;;;;;;1.63;0.90;;;;;;;7.35;100.00;95443.88;5004981;28;20222;-69
2023/12/14 03:46:35;;;;;;;1.47;1.10;;;;;;;7.45;100.00;95445.25;5001987;28;20683;-69
2023/12/14 03:49:04;;;;;;;1.33;1.00;;;;;;;7.61;100.00;95444.28;4999214;28;20211;-69
2023/12/14 03:51:30;;;;;;;1.37;0.90;;;;;;;7.56;100.00;95452.69;4998704;28;20226;-69
2023/12/14 03:53:57;;;;;;;1.60;1.00;;;;;;;7.51;100.00;95448.97;4998083;28;20203;-68
2023/12/14 03:56:23;;;;;;;1.10;0.80;;;;;;;7.49;100.00;95461.44;4998614;28;20561;-68
2023/12/14 03:58:50;;;;;;;0.90;0.80;;;;;;;7.44;100.00;95459.34;4998373;28;20242;-69
2023/12/14 04:01:18;;;;;;;0.50;0.50;;;;;;;7.54;100.00;95470.41;4997971;28;20222;-68
2023/12/14 04:03:44;;;;;;;1.77;1.10;;;;;;;7.32;100.00;95465.19;4998132;28;21509;-69
2023/12/14 04:06:13;;;;;;;1.70;1.03;;;;;;;7.25;100.00;95473.94;4998604;28;21072;-68
2023/12/14 04:08:40;;;;;;;1.53;1.30;;;;;;;7.17;100.00;95482.66;4997368;28;20877;-69
2023/12/14 04:11:06;;;;;;;1.90;1.40;;;;;;;6.98;100.00;95490.16;4997531;28;20236;-69
2023/12/14 04:13:34;;;;;;;3.43;2.07;;;;;;;7.12;100.00;95490.22;4998120;28;20213;-69
2023/12/14 04:16:01;;;;;;;3.17;1.80;;;;;;;7.09;100.00;95489.75;4998110;28;20221;-69
2023/12/14 04:18:28;;;;;;;3.77;1.90;;;;;;;7.12;100.00;95495.47;4997727;28;20207;-68
2023/12/14 04:20:54;;;;;;;6.73;2.80;;;;;;;7.15;100.00;95504.78;4997708;28;20245;-69
2023/12/14 04:23:22;;;;;;;8.90;4.10;;;;;;;7.41;100.00;95504.25;4998078;28;20210;-68
2023/12/14 04:25:49;;;;;;;8.27;3.57;;;;;;;7.29;100.00;95518.78;4997277;28;20688;-69
2023/12/14 04:28:15;;;;;;;9.57;3.50;;;;;;;7.36;100.00;95513.66;5009454;28;20256;-69
2023/12/14 04:30:42;;;;;;;6.87;3.70;;;;;;;7.38;100.00;95517.72;5001340;28;20242;-69
2023/12/14 04:33:08;;;;;;;2.50;1.47;;;;;;;7.24;100.00;95515.03;4997437;28;20206;-69
2023/12/14 04:35:36;;;;;;;3.30;1.97;;;;;;;7.32;100.00;95522.84;5003201;28;20293;-69
2023/12/14 04:38:02;;;;;;;2.60;1.50;;;;;;;7.33;100.00;95527.06;5006055;28;20237;-69
2023/12/14 04:40:30;;;;;;;1.53;1.23;;;;;;;7.53;100.00;95526.44;5003689;28;20229;-69
2023/12/14 04:42:57;;;;;;;1.97;1.10;;;;;;;7.20;100.00;95526.03;4997227;28;20666;-69
2023/12/14 04:45:23;;;;;;;3.03;1.00;;;;;;;7.18;100.00;95534.06;5008579;28;20229;-68
2023/12/14 04:47:50;;;;;;;1.17;1.00;;;;;;;6.89;100.00;95540.94;5001150;28;20699;-69
2023/12/14 04:50:16;;;;;;;1.60;1.20;;;;;;;7.01;100.00;95539.56;4996283;28;20225;-68
2023/12/14 04:52:43;;;;;;;1.60;1.00;;;;;;;6.89;100.00;95541.75;5002140;28;20217;-68
2023/12/14 04:55:10;;;;;;;1.73;1.20;;;;;;;6.99;100.00;95538.94;4998393;28;20232;-68
2023/12/14 04:57:38;;;;;;;1.47;1.10;;;;;;;7.24;100.00;95545.66;4997431;28;20202;-68
2023/12/14 05:00:05;;;;;;;2.00;1.53;;;;;;;7.34;100.00;95555.75;4997118;28;20206;-67
2023/12/14 05:02:33;;;;;;;2.93;1.47;;;;;;;7.27;100.00;95559.22;4997572;28;20205;-68
2023/12/14 05:04:59;;;;;;;2.10;1.07;;;;;;;7.24;100.00;95556.94;4997673;28;20735;-68
2023/12/14 05:07:26;;;;;;;1.90;1.53;;;;;;;7.19;100.00;95568.94;4997331;28;20202;-68
2023/12/14 05:09:52;;;;;;;2.00;1.40;;;;;;;7.25;100.00;95569.06;4997241;28;20213;-68
2023/12/14 05:12:19;;;;;;;4.17;1.53;;;;;;;7.16;100.00;95575.34;4996755;28;20234;-68
2023/12/14 05:14:47;;;;;;;1.90;1.53;;;;;;;7.36;100.00;95579.97;4997104;28;20202;-68
2023/12/14 05:17:13;;;;;;;2.03;1.20;;;;;;;7.28;100.00;95580.03;4998061;28;20213;-67
2023/12/14 05:19:40;;;;;;;2.60;1.67;;;;;;;7.38;100.00;95585.88;4997083;28;20230;-67
2023/12/14 05:22:06;;;;;;;1.87;1.40;;;;;;;7.31;100.00;95590.16;4997228;28;20239;-68
2023/12/14 05:24:33;;;;;;;4.43;1.83;;;;;;;7.13;100.00;95590.56;4997039;28;20218;-68
2023/12/14 05:26:59;;;;;;;3.43;1.70;;;;;;;7.40;100.00;95589.09;5000407;28;20210;-67
2023/12/14 05:29:26;;;;;;;3.43;1.83;;;;;;;7.37;100.00;95593.91;5000981;28;20214;-68
2023/12/14 05:31:54;;;;;;;2.43;1.63;;;;;;;7.62;100.00;95604.03;5001228;28;20716;-68
2023/12/14 05:34:20;;;;;;;1.63;1.50;;;;;;;7.51;100.00;95612.31;5000875;28;20202;-67
2023/12/14 05:36:47;;;;;;;3.00;1.57;;;;;;;7.57;100.00;95610.78;5000661;28;20203;-68
2023/12/14 05:39:13;;;;;;;2.40;1.80;;;;;;;7.63;100.00;95616.16;5000868;28;20209;-68
2023/12/14 05:41:41;;;;;;;3.97;2.13;;;;;;;7.72;100.00;95619.56;5008590;28;20224;-68
2023/12/14 05:44:08;;;;;;;2.83;1.70;;;;;;;7.67;100.00;95633.16;5000900;28;20642;-68
2023/12/14 05:46:35;;;;;;;3.27;2.03;;;;;;;7.57;100.00;95637.81;5000800;28;20203;-68
2023/12/14 05:49:03;;;;;;;3.00;1.93;;;;;;;7.66;100.00;95631.56;5004034;28;20676;-67
2023/12/14 05:51:30;;;;;;;3.63;1.53;;;;;;;7.74;100.00;95633.28;5000720;28;20693;-68
2023/12/14 05:53:57;;;;;;;2.53;2.17;;;;;;;7.50;100.00;95647.38;5000297;28;20293;-68
2023/12/14 05:56:23;;;;;;;2.73;1.73;;;;;;;7.62;100.00;95638.13;5007880;28;20195;-68
2023/12/14 05:58:50;;;;;;;1.87;1.53;;;;;;;7.67;100.00;95642.84;5001373;28;20206;-67
2023/12/14 06:01:18;;;;;;;3.93;2.00;;;;;;;7.64;100.00;95654.50;5000313;28;20716;-68
2023/12/14 06:03:44;;;;;;;3.47;2.00;;;;;;;7.55;100.00;95654.72;5000095;28;20260;-68
2023/12/14 06:06:14;;;;;;;3.90;2.30;;;;;;;7.61;100.00;95665.34;5001243;28;20226;-68
2023/12/14 06:08:41;;;;;;;2.80;2.20;;;;;;;7.49;100.00;95677.19;5000066;28;20302;-68
2023/12/14 06:11:07;;;;;;;3.77;2.13;;;;;;;7.63;100.00;95673.84;4999992;28;20238;-68
2023/12/14 06:13:34;;;;;;;3.17;2.20;;;;;;;7.66;100.00;95676.13;5000813;28;20298;-68
2023/12/14 06:16:00;;;;;;;4.03;2.70;;;;;;;7.65;100.00;95671.88;5007901;28;20225;-68
2023/12/14 06:18:27;;;;;;;5.13;3.07;;;;;;;7.60;100.00;95687.31;5000884;28;20209;-68
2023/12/14 06:20:53;;;;;;;6.47;2.60;;;;;;;7.66;100.00;95688.41;5000000;28;20230;-67
2023/12/14 06:23:21;;;;;;;3.17;2.30;;;;;;;7.85;100.00;95694.03;5000621;28;20199;-67
2023/12/14 06:25:48;;;;;;;7.37;3.37;;;;;;;7.69;100.00;95704.63;4999816;28;20223;-67
2023/12/14 06:28:14;;;;;;;6.23;3.37;;;;;;;7.67;100.00;95703.97;5000398;28;20210;-68
2023/12/14 06:30:41;;;;;;;5.23;2.90;;;;;;;7.72;100.00;95720.00;4999089;28;20218;-68
2023/12/14 06:33:07;;;;;;;6.10;2.80;;;;;;;7.75;100.00;95714.44;5001275;28;20213;-68
2023/12/14 06:35:34;;;;;;;4.33;3.10;;;;;;;7.74;100.00;95722.44;4999956;28;20194;-68
2023/12/14 06:38:00;;;;;;;4.03;2.53;;;;;;;7.80;100.00;95729.63;4998514;28;20206;-68
2023/12/14 06:40:28;;;;;;;4.13;2.43;;;;;;;7.90;100.00;95726.63;4999765;28;20218;-68
2023/12/14 06:42:55;;;;;;;5.47;2.87;;;;;;;7.84;100.00;95734.38;4999918;28;20723;-68
2023/12/14 06:45:21;;;;;;;4.57;2.83;;;;;;;7.88;100.00;95735.66;5006701;28;20241;-68
2023/12/14 06:47:48;;;;;;;6.60;3.20;;;;;;;7.79;100.00;95736.69;5000092;28;20646;-68
2023/12/14 06:50:15;;;;;;;5.80;2.73;;;;;;;7.68;100.00;95749.38;5006731;28;20735;-68
2023/12/14 06:52:41;;;;;;;5.00;2.87;;;;;;;7.68;100.00;95744.94;5003630;28;20860;-68
2023/12/14 06:55:09;;;;;;;6.33;2.97;;;;;;;7.79;100.00;95744.56;4999575;28;20207;-68
2023/12/14 06:57:37;;;;;;;6.27;3.20;;;;;;;7.91;100.00;95745.81;4999588;28;20202;-68
2023/12/14 07:00:04;;;;;;;7.37;3.60;;;;;;;7.78;100.00;95747.34;4999080;28;20584;-68
2023/12/14 07:02:30;;;;;;;8.50;3.67;;;;;;;7.80;100.00;95759.28;4999491;28;20551;-68
2023/12/14 07:04:57;;;;;;;9.50;3.37;;;;;;;7.77;100.00;95759.63;4998629;28;20233;-68
2023/12/14 07:07:23;;;;;;;5.23;2.87;;;;;;;7.90;100.00;95770.38;5002990;28;20688;-68
2023/12/14 07:09:50;;;;;;;8.30;3.70;;;;;;;7.90;100.00;95775.63;4998631;28;20206;-68
2023/12/14 07:12:16;;;;;;;14.17;5.00;;;;;;;7.72;100.00;95777.69;4999292;28;20978;-68
2023/12/14 07:14:44;;;;;;;12.00;5.10;;;;;;;7.93;100.00;95783.19;4999057;28;20198;-68
2023/12/14 07:17:11;;;;;;;8.73;3.77;;;;;;;7.79;100.00;95786.53;4999123;28;20202;-68
2023/12/14 07:19:37;;;;;;;13.87;4.20;;;;;;;7.86;100.00;95787.47;4998683;28;20565;-68
2023/12/14 07:22:04;;;;;;;7.67;3.67;;;;;;;7.90;100.00;95792.22;5000295;28;20225;-68
2023/12/14 07:24:31;;;;;;;7.37;4.00;;;;;;;7.70;100.00;95807.69;5002897;28;20252;-68
2023/12/14 07:26:58;;;;;;;8.13;4.17;;;;;;;7.92;100.00;95807.78;5004108;28;20210;-68
2023/12/14 07:29:24;;;;;;;8.80;3.93;;;;;;;7.88;100.00;95809.09;5005535;28;20199;-68
2023/12/14 07:31:52;;;;;;;8.07;3.83;;;;;;;7.94;100.00;95798.75;5002316;28;20229;-69
2023/12/14 07:34:20;;;;;;;9.13;4.23;;;;;;;7.55;100.00;95807.59;4998208;28;20852;-68
2023/12/14 07:36:46;;;;;;;8.00;4.20;;;;;;;7.65;100.00;95817.88;4998443;28;20225;-68
2023/12/14 07:39:13;;;;;;;12.13;4.70;;;;;;;7.73;100.00;95821.28;4997274;28;20642;-68
2023/12/14 07:41:39;;;;;;;9.50;4.23;;;;;;;7.71;100.00;95827.69;4999241;28;20317;-68
2023/12/14 07:44:06;;;;;;;10.63;4.03;;;;;;;7.75;100.00;95828.97;4999591;28;20202;-68
2023/12/14 07:46:33;;;;;;;10.17;4.20;;;;;;;7.60;100.00;95831.50;4998977;28;20229;-68
2023/12/14 07:49:01;;;;;;;10.40;4.43;;;;;;;7.94;100.00;95832.84;4998663;28;20213;-68
2023/12/14 07:51:27;;;;;;;9.00;3.93;;;;;;;7.87;100.00;95845.00;4998948;28;20222;-68
2023/12/14 07:53:54;;;;;;;9.03;3.73;;;;;;;7.76;100.00;95841.91;4998955;28;20260;-68
2023/12/14 07:56:25;;;;;;;7.03;3.70;;;;;;;7.67;100.00;95857.88;5005930;28;20202;-68
2023/12/14 07:58:51;;;;;;;7.93;3.70;;;;;;;7.81;100.00;95855.34;5010569;28;20234;-68
2023/12/14 08:01:18;;;;;;;7.33;3.53;;;;;;;7.80;100.00;95861.56;5005673;28;20225;-68
2023/12/14 08:03:44;;;;;;;7.97;3.50;;;;;;;7.84;100.00;95869.94;4998511;28;20699;-68
2023/12/14 08:06:12;;;;;;;10.13;3.80;;;;;;;7.89;100.00;95861.41;5000709;28;20232;-68
2023/12/14 08:08:39;;;;;;;9.93;4.03;;;;;;;7.72;100.00;95866.03;4998042;28;20213;-68
2023/12/14 08:11:06;;;;;;;7.30;3.63;;;;;;;7.87;100.00;95880.91;4997785;28;20241;-68
2023/12/14 08:13:32;;;;;;;8.30;3.40;;;;;;;7.73;100.00;95873.75;4998235;28;20198;-68
2023/12/14 08:15:59;;;;;;;9.33;3.20;;;;;;;7.77;100.00;95885.53;4998576;28;20210;-68
2023/12/14 08:18:25;;;;;;;9.47;4.63;;;;;;;7.75;100.00;95881.44;4998182;28;20397;-68
2023/12/14 08:20:55;;;;;;;7.63;3.60;;;;;;;7.84;100.00;95890.91;4997090;28;20610;-68
2023/12/14 08:23:23;;;;;;;9.33;3.77;;;;;;;7.91;100.00;95893.50;4998177;28;20228;-68
2023/12/14 08:25:50;;;;;;;8.80;3.50;;;;;;;7.94;100.00;95893.19;4997625;28;20289;-68
2023/12/14 08:28:16;;;;;;;8.93;3.97;;;;;;;7.92;100.00;95895.16;4998551;28;20210;-68
2023/12/14 08:30:43;;;;;;;8.00;3.87;;;;;;;7.82;100.00;95906.03;5003218;28;20224;-68
2023/12/14 08:33:09;;;;;;;8.37;4.03;;;;;;;7.83;100.00;95911.09;5001532;28;20208;-68
2023/12/14 08:35:36;;;;;;;10.50;3.90;;;;;;;8.01;100.00;95919.56;4998287;28;20225;-68
2023/12/14 08:38:02;;;;;;;11.00;4.03;;;;;;;8.08;100.00;95926.59;4997950;28;20704;-68
2023/12/14 08:40:30;;;;;;;7.33;3.80;;;;;;;8.25;100.00;95927.34;4998446;28;20232;-68
2023/12/14 08:42:57;;;;;;;5.90;3.00;;;;;;;8.17;100.00;95940.50;4998088;28;20723;-68
2023/12/14 08:45:24;;;;;;;8.63;3.90;;;;;;;7.95;100.00;95930.72;4998208;28;20229;-68
2023/12/14 08:47:50;;;;;;;9.80;3.97;;;;;;;7.98;100.00;95935.63;4997820;28;20217;-68
2023/12/14 08:50:18;;;;;;;6.50;3.77;;;;;;;7.97;100.00;95945.31;4997630;28;20296;-68
2023/12/14 08:52:44;;;;;;;6.40;3.40;;;;;;;7.70;100.00;95952.75;4997352;28;20206;-68
2023/12/14 08:55:11;;;;;;;7.17;3.50;;;;;;;7.50;100.00;95961.94;4997570;28;20198;-69
2023/12/14 08:57:39;;;;;;;8.40;3.87;;;;;;;7.87;100.00;95960.41;4998687;28;20203;-68
2023/12/14 09:00:07;;;;;;;6.53;3.50;;;;;;;7.82;100.00;95969.78;4997995;28;20569;-68
2023/12/14 09:02:34;;;;;;;5.47;3.10;;;;;;;7.81;100.00;95969.94;5002091;28;20203;-68
2023/12/14 09:05:00;;;;;;;7.43;4.23;;;;;;;7.75;100.00;95973.22;5009499;28;20210;-68
2023/12/14 09:07:27;;;;;;;9.00;4.33;;;;;;;7.82;100.00;95975.03;5002796;28;20221;-68
2023/12/14 09:09:53;;;;;;;14.27;4.77;;;;;;;8.06;100.00;95975.78;5001944;28;20210;-68
2023/12/14 09:12:20;;;;;;;10.17;4.73;;;;;;;8.02;100.00;95978.94;5002311;28;20242;-68
2023/12/14 09:14:48;;;;;;;9.87;4.90;;;;;;;7.97;100.00;95974.16;5008708;28;20677;-68
2023/12/14 09:17:15;;;;;;;10.50;4.67;;;;;;;7.87;100.00;95980.59;5002803;28;20210;-68
2023/12/14 09:19:41;;;;;;;6.67;4.03;;;;;;;7.94;100.00;95977.13;5001568;28;20205;-68
2023/12/14 09:22:08;;;;;;;9.43;3.60;;;;;;;7.97;100.00;95976.78;5002794;28;20609;-68
2023/12/14 09:24:34;;;;;;;5.77;3.33;;;;;;;8.18;100.00;95966.59;5002884;28;20207;-68
2023/12/14 09:27:01;;;;;;;7.83;4.07;;;;;;;8.14;100.00;95982.84;5001789;28;20223;-68
2023/12/14 09:29:27;;;;;;;10.27;4.13;;;;;;;8.26;100.00;95986.75;5002562;28;20317;-68
2023/12/14 09:31:55;;;;;;;9.77;5.07;;;;;;;8.29;100.00;95995.09;5001646;28;20314;-68
2023/12/14 09:34:22;;;;;;;8.80;4.40;;;;;;;7.87;100.00;95999.75;5001681;28;20209;-68
2023/12/14 09:36:48;;;;;;;13.90;4.87;;;;;;;8.13;100.00;96002.16;5002118;28;20202;-68
2023/12/14 09:39:15;;;;;;;8.27;4.27;;;;;;;8.04;100.00;96013.66;5001490;28;20210;-68
2023/12/14 09:41:42;;;;;;;11.67;4.83;;;;;;;7.94;100.00;96016.50;5002056;28;20226;-68
2023/12/14 09:44:08;;;;;;;10.83;4.43;;;;;;;8.01;100.00;96021.88;5002310;28;20217;-68
2023/12/14 09:46:38;;;;;;;12.83;5.20;;;;;;;8.24;100.00;96020.22;5002245;28;21198;-68
2023/12/14 09:49:06;;;;;;;9.37;4.43;;;;;;;8.29;100.00;96029.22;5001430;28;20209;-69
2023/12/14 09:51:33;;;;;;;8.60;4.20;;;;;;;8.24;100.00;96033.34;5001803;28;20233;-68
2023/12/14 09:53:59;;;;;;;8.27;3.70;;;;;;;7.94;100.00;96040.09;5001242;28;20209;-68
2023/12/14 09:56:26;;;;;;;9.53;4.77;;;;;;;8.04;100.00;96039.91;5001281;28;20273;-68
2023/12/14 09:58:53;;;;;;;12.03;4.90;;;;;;;8.37;100.00;96036.28;5001302;28;20210;-70
2023/12/14 10:01:24;;;;;;;8.83;4.23;;;;;;;8.52;100.00;96035.41;5000581;28;20229;-68
2023/12/14 10:03:50;;;;;;;11.57;5.63;;;;;;;8.40;100.00;96041.19;5009721;28;20221;-68
2023/12/14 10:06:19;;;;;;;6.93;3.93;;;;;;;8.58;100.00;96051.28;5002512;28;20252;-68
2023/12/14 10:08:54;;;;;;;8.87;4.53;;;;;;;8.82;100.00;96047.75;5005482;28;20212;-68
2023/12/14 10:11:22;;;;;;;6.30;3.67;;;;;;;8.49;100.00;96052.31;5001568;28;20238;-68
2023/12/14 10:13:48;;;;;;;4.20;2.30;;;;;;;8.47;100.00;96057.91;5002360;28;20529;-69
2023/12/14 10:16:27;;;;;;;4.47;2.37;;;;;;;8.56;100.00;96058.50;5002918;28;20202;-68
2023/12/14 10:18:54;;;;;;;4.50;2.77;;;;;;;8.39;100.00;96060.53;5002502;28;20576;-68
2023/12/14 10:21:22;;;;;;;6.83;3.50;;;;;;;8.70;100.00;96059.63;5003450;28;20237;-68
2023/12/14 10:23:49;;;;;;;7.23;3.40;;;;;;;8.68;100.00;96057.19;5005004;28;20217;-68
2023/12/14 10:26:16;;;;;;;10.23;3.63;;;;;;;8.56;100.00;96063.75;5004020;28;20233;-69
2023/12/14 10:28:42;;;;;;;8.27;3.30;;;;;;;8.46;100.00;96058.88;5009084;28;20287;-68
2023/12/14 10:31:10;;;;;;;4.83;2.77;;;;;;;8.60;100.00;96059.84;5012275;28;20829;-69
2023/12/14 10:33:38;;;;;;;18.37;6.77;;;;;;;8.57;100.00;96061.97;5019478;28;20202;-68
2023/12/14 10:36:05;;;;;;;9.83;4.40;;;;;;;8.67;100.00;96059.97;5006223;28;20289;-70
2023/12/14 10:38:37;;;;;;;7.73;4.43;;;;;;;8.83;100.00;96047.56;5011213;28;20233;-68
2023/12/14 10:41:07;;;;;;;13.93;6.27;;;;;;;8.97;100.00;96061.81;5016911;28;20228;-68
2023/12/14 10:43:37;;;;;;;8.47;4.60;;;;;;;9.03;100.00;96061.94;5017739;28;20554;-68
2023/12/14 10:46:06;;;;;;;10.40;4.97;;;;;;;9.16;100.00;96068.31;5015937;28;20268;-68
2023/12/14 10:48:33;;;;;;;6.10;4.17;;;;;;;9.18;100.00;96068.13;5005355;28;20206;-69
2023/12/14 10:51:03;;;;;;;11.20;4.63;;;;;;;9.53;100.00;96067.56;5012386;28;20229;-68
2023/12/14 10:53:30;;;;;;;9.13;3.67;;;;;;;9.47;100.00;96073.53;5003789;28;20208;-69
2023/12/14 10:56:01;;;;;;;11.13;4.83;;;;;;;9.39;100.00;96073.56;5013415;28;20201;-68
2023/12/14 10:58:28;;;;;;;8.23;3.30;;;;;;;9.32;100.00;96076.09;5017727;28;20971;-69
2023/12/14 11:01:02;;;;;;;5.13;3.13;;;;;;;9.66;100.00;96080.97;5009631;28;20230;-68
2023/12/14 11:03:34;;;;;;;7.93;3.07;;;;;;;9.36;100.00;96089.72;5007430;28;20210;-68
2023/12/14 11:06:01;;;;;;;7.10;3.53;;;;;;;9.15;100.00;96090.31;5015069;28;20994;-69
2023/12/14 11:08:27;;;;;;;6.83;2.40;;;;;;;9.15;100.00;96089.47;5011668;28;20203;-70
2023/12/14 11:11:00;;;;;;;3.37;2.00;;;;;;;9.13;100.00;96094.09;5003498;28;20265;-70
2023/12/14 11:13:32;;;;;;;4.77;2.50;;;;;;;9.19;100.00;96099.50;5010071;28;20209;-69
2023/12/14 11:16:01;;;;;;;4.10;2.03;;;;;;;9.06;100.00;96108.91;5010529;28;20213;-70
2023/12/14 11:18:28;;;;;;;3.50;1.73;;;;;;;9.23;100.00;96105.22;5004847;28;20217;-68
2023/12/14 11:20:57;;;;;;;4.10;2.10;;;;;;;9.21;100.00;96107.19;5002312;28;20229;-68
2023/12/14 11:23:30;;;;;;;3.53;2.10;;;;;;;9.39;100.00;96113.81;4998182;28;20198;-68
2023/12/14 11:25:59;;;;;;;3.50;1.80;;;;;;;9.28;100.00;96114.22;4998494;28;20237;-68
2023/12/14 11:28:28;;;;;;;2.53;1.80;;;;;;;9.36;100.00;96118.63;4998458;28;20211;-68
2023/12/14 11:30:55;;;;;;;8.40;3.43;;;;;;;9.32;100.00;96119.97;5000512;28;20234;-68